Time;durP1;ratioP1;P1;durP2;ratioP2;P2;SDS_P1;SDS_P2;PMS_P1;PMS_P2;Temp;Humidity;BMP_temperature;BMP_pressure;BME280_temperature;BME280_humidity;BME280_pressure;Samples;Min_cycle;Max_cycle;Signal;HPM_P1;HPM_P2
2022/12/18 00:00:46;;;;;;;35.23;15.80;;;6.80;99.90;;;;;;10307641;28;20242;-93
2022/12/18 00:05:50;;;;;;;28.20;12.63;;;7.30;95.10;;;;;;10310679;28;20265;-93
2022/12/18 00:10:53;;;;;;;44.67;24.03;;;7.00;98.80;;;;;;10325510;28;20203;-91
2022/12/18 00:16:07;;;;;;;37.47;19.50;;;6.10;86.50;;;;;;10308215;28;20272;-94
2022/12/18 00:21:11;;;;;;;25.27;15.20;;;5.80;92.20;;;;;;10308958;28;20742;-94
2022/12/18 00:26:19;;;;;;;42.60;22.07;;;5.80;99.90;;;;;;10333916;28;20255;-94
2022/12/18 00:31:25;;;;;;;47.57;23.90;;;4.60;94.80;;;;;;10317567;28;20270;-95
2022/12/18 00:36:33;;;;;;;31.63;16.17;;;4.40;93.70;;;;;;10317023;28;20234;-94
2022/12/18 00:46:56;;;;;;;35.57;17.03;;;6.00;99.90;;;;;;10334732;28;20599;-93
2022/12/18 00:52:00;;;;;;;48.37;22.67;;;4.90;93.90;;;;;;10334532;28;20235;-94
2022/12/18 00:57:02;;;;;;;36.53;18.23;;;5.20;98.80;;;;;;10333260;28;20641;-93
2022/12/18 01:02:04;;;;;;;31.07;16.43;;;4.00;96.70;;;;;;10335284;28;20280;-93
2022/12/18 01:07:08;;;;;;;33.00;17.43;;;4.20;99.90;;;;;;10334635;28;20202;-94
2022/12/18 01:12:11;;;;;;;27.57;13.90;;;3.70;99.90;;;;;;10316087;28;20315;-94
2022/12/18 01:17:14;;;;;;;33.20;16.83;;;4.80;99.90;;;;;;10316274;28;20217;-94
2022/12/18 01:22:16;;;;;;;44.03;23.13;;;4.70;98.20;;;;;;10316070;28;20258;-93
2022/12/18 01:27:19;;;;;;;36.27;18.70;;;4.40;98.40;;;;;;10333744;28;20193;-95
2022/12/18 01:32:22;;;;;;;37.50;17.73;;;4.40;99.90;;;;;;10332433;28;20237;-95
2022/12/18 01:37:24;;;;;;;32.13;15.37;;;3.80;99.90;;;;;;10333713;28;20614;-94
2022/12/18 01:42:27;;;;;;;45.57;22.20;;;4.20;99.90;;;;;;10300047;28;20224;-93
2022/12/18 01:47:39;;;;;;;35.53;15.27;;;4.30;99.20;;;;;;10330522;28;20219;-94
2022/12/18 01:52:44;;;;;;;34.17;17.63;;;4.80;98.80;;;;;;10315965;28;20615;-94
2022/12/18 01:57:47;;;;;;;37.63;17.57;;;4.20;98.70;;;;;;10334129;28;20213;-93
2022/12/18 02:02:49;;;;;;;40.37;19.50;;;4.90;99.90;;;;;;10330917;28;20336;-94
2022/12/18 02:08:15;;;;;;;36.13;17.63;;;3.90;99.90;;;;;;10314644;28;20208;-93
2022/12/18 02:13:37;;;;;;;35.07;16.30;;;5.10;99.90;;;;;;10314579;28;20245;-93
2022/12/18 02:18:47;;;;;;;50.40;23.50;;;5.00;91.80;;;;;;10314081;28;20583;-92
2022/12/18 02:24:08;;;;;;;57.60;27.67;;;4.40;95.40;;;;;;10331175;28;20656;-93
2022/12/18 02:29:22;;;;;;;48.37;22.53;;;1.60;92.30;;;;;;10313357;28;20209;-94
2022/12/18 02:34:29;;;;;;;53.07;25.30;;;0.50;99.90;;;;;;10329873;28;20202;-91
2022/12/18 02:39:34;;;;;;;35.50;16.73;;;-0.30;99.90;;;;;;10313741;28;20615;-91
2022/12/18 02:44:44;;;;;;;26.80;14.53;;;1.00;99.90;;;;;;10311930;28;20270;-92
2022/12/18 02:49:48;;;;;;;40.77;20.30;;;3.30;99.90;;;;;;10312783;28;20253;-94
2022/12/18 02:55:03;;;;;;;29.20;14.13;;;4.90;99.90;;;;;;10313118;28;20216;-91
2022/12/18 03:00:13;;;;;;;28.67;15.13;;;4.70;99.90;;;;;;10312330;28;20218;-95
2022/12/18 03:05:31;;;;;;;37.43;18.70;;;3.80;97.50;;;;;;10280342;28;20245;-92
2022/12/18 03:10:39;;;;;;;31.93;16.40;;;3.80;99.90;;;;;;10209175;29;20292;-93
2022/12/18 03:15:46;;;;;;;28.30;13.23;;;4.20;99.90;;;;;;10208497;29;20273;-92
2022/12/18 03:20:52;;;;;;;39.77;19.17;;;4.60;99.90;;;;;;10254591;28;20286;-92
2022/12/18 03:26:00;;;;;;;43.27;20.43;;;3.50;91.10;;;;;;10291252;28;20262;-91
2022/12/18 03:31:13;;;;;;;45.43;21.70;;;1.60;96.60;;;;;;10287393;28;20300;-93
2022/12/18 03:36:16;;;;;;;33.43;16.33;;;0.50;99.90;;;;;;10303981;28;20247;-93
2022/12/18 03:41:28;;;;;;;42.63;21.63;;;1.20;99.90;;;;;;10246834;28;20247;-92
2022/12/18 03:47:36;;;;;;;54.60;24.37;;;3.20;99.90;;;;;;10259416;28;20272;-92
2022/12/18 03:52:42;;;;;;;54.80;26.27;;;0.50;92.10;;;;;;10226005;29;20318;-91
2022/12/18 03:57:47;;;;;;;52.77;26.07;;;0.40;99.90;;;;;;10247021;28;20217;-92
2022/12/18 04:02:55;;;;;;;46.23;22.50;;;-0.80;99.90;;;;;;10255768;28;20274;-92
2022/12/18 04:08:05;;;;;;;31.30;16.33;;;-0.90;99.90;;;;;;10310674;28;20259;-93
2022/12/18 04:13:11;;;;;;;46.67;20.80;;;2.30;99.90;;;;;;10328017;28;20230;-92
2022/12/18 04:18:15;;;;;;;50.27;22.77;;;2.40;99.90;;;;;;10305088;28;20672;-93
2022/12/18 04:23:18;;;;;;;42.97;20.00;;;2.50;99.90;;;;;;10321377;28;20235;-92
2022/12/18 04:28:22;;;;;;;62.37;28.07;;;1.00;99.90;;;;;;10316092;28;20215;-92
2022/12/18 04:33:24;;;;;;;59.17;29.37;;;-0.30;97.20;;;;;;10322801;28;20218;-91
2022/12/18 04:38:27;;;;;;;55.87;26.43;;;-0.10;99.90;;;;;;10343637;28;20234;-92
2022/12/18 04:43:37;;;;;;;53.47;26.33;;;-0.30;99.90;;;;;;10328156;28;20232;-91
2022/12/18 04:48:44;;;;;;;38.03;20.13;;;-0.90;99.90;;;;;;10346520;28;20219;-90
2022/12/18 04:53:47;;;;;;;47.97;22.23;;;-1.50;99.90;;;;;;10331900;28;20235;-91
2022/12/18 04:58:49;;;;;;;36.93;17.50;;;0.30;99.90;;;;;;10316224;28;20562;-92
2022/12/18 05:03:52;;;;;;;31.77;14.87;;;2.30;99.90;;;;;;10327718;28;20235;-92
2022/12/18 05:08:54;;;;;;;52.83;27.03;;;3.20;99.90;;;;;;10322076;28;20225;-92
2022/12/18 05:13:57;;;;;;;50.73;24.63;;;1.50;96.20;;;;;;10328302;28;20250;-91
2022/12/18 05:19:02;;;;;;;54.20;24.43;;;-0.80;99.10;;;;;;10327219;28;20239;-91
2022/12/18 05:24:08;;;;;;;50.47;24.80;;;-1.60;99.90;;;;;;10312573;28;20214;-92
2022/12/18 05:29:12;;;;;;;24.17;12.07;;;-1.20;99.90;;;;;;10322807;28;20202;-91
2022/12/18 05:34:15;;;;;;;26.87;13.17;;;1.90;99.90;;;;;;10346333;28;20230;-95
2022/12/18 05:39:17;;;;;;;43.97;19.70;;;3.30;99.90;;;;;;10304117;28;20677;-95
2022/12/18 05:44:20;;;;;;;55.47;26.40;;;3.60;99.20;;;;;;10341536;28;20222;-96
2022/12/18 05:49:22;;;;;;;47.77;23.73;;;1.40;86.70;;;;;;10345682;28;20264;-96
2022/12/18 05:54:27;;;;;;;43.90;19.20;;;-0.50;97.40;;;;;;10325485;28;20210;-96
2022/12/18 05:59:30;;;;;;;39.03;18.03;;;-0.30;99.90;;;;;;10326847;28;20204;-94
2022/12/18 06:04:32;;;;;;;50.33;24.73;;;0.20;99.90;;;;;;10343776;28;20304;-95
2022/12/18 06:09:35;;;;;;;51.00;26.60;;;0.20;97.70;;;;;;10328141;28;20257;-95
2022/12/18 06:14:37;;;;;;;25.20;13.20;;;-1.40;99.90;;;;;;10345751;28;20212;-95
2022/12/18 06:19:40;;;;;;;26.57;13.53;;;1.10;99.90;;;;;;10356370;28;20179;-96
2022/12/18 06:24:42;;;;;;;28.67;12.73;;;2.50;99.90;;;;;;10384768;28;20212;-95
2022/12/18 06:29:45;;;;;;;47.43;23.13;;;3.80;99.90;;;;;;10384615;28;20192;-95
2022/12/18 06:34:47;;;;;;;48.90;23.13;;;4.20;89.70;;;;;;10384367;28;20184;-95
2022/12/18 06:39:50;;;;;;;51.57;24.20;;;0.80;84.10;;;;;;10351790;28;20211;-95
2022/12/18 06:44:52;;;;;;;37.03;18.57;;;0.30;95.90;;;;;;10376998;28;20221;-95
2022/12/18 06:49:54;;;;;;;47.97;23.60;;;-0.90;99.90;;;;;;10368150;28;20197;-94
2022/12/18 06:54:57;;;;;;;37.07;19.03;;;-0.10;97.30;;;;;;10383688;28;20207;-95
2022/12/18 06:59:59;;;;;;;26.97;14.40;;;-1.10;99.90;;;;;;10383899;28;20211;-95
2022/12/18 07:05:02;;;;;;;33.10;16.83;;;-1.40;99.90;;;;;;10384011;28;20226;-95
2022/12/18 07:10:11;;;;;;;46.20;21.03;;;1.20;99.90;;;;;;10344963;28;20179;-95
2022/12/18 07:15:14;;;;;;;36.07;16.80;;;1.20;93.90;;;;;;10383060;28;20184;-94
2022/12/18 07:20:16;;;;;;;48.60;20.93;;;1.40;99.90;;;;;;10367108;28;20273;-95
2022/12/18 07:25:19;;;;;;;53.83;26.10;;;2.10;99.90;;;;;;10383251;28;20224;-95
2022/12/18 07:30:21;;;;;;;58.60;27.40;;;1.00;93.80;;;;;;10383272;28;20203;-95
2022/12/18 07:35:24;;;;;;;63.20;29.07;;;-0.70;99.30;;;;;;10382120;28;20208;-96
2022/12/18 07:40:26;;;;;;;68.10;29.77;;;-0.50;99.90;;;;;;10382628;28;20226;-95
2022/12/18 07:45:29;;;;;;;68.10;28.37;;;-1.40;99.90;;;;;;10382358;28;20197;-95
2022/12/18 07:50:31;;;;;;;64.80;29.47;;;-1.90;99.90;;;;;;10382331;28;20202;-94
2022/12/18 07:55:34;;;;;;;50.67;20.80;;;-0.80;99.90;;;;;;10366485;28;20179;-96
2022/12/18 08:01:07;;;;;;;37.83;19.23;;;2.20;99.90;;;;;;10381871;28;20182;-94
2022/12/18 08:06:10;;;;;;;78.63;35.47;;;2.30;99.90;;;;;;10382438;28;20250;-93
2022/12/18 08:11:12;;;;;;;53.33;23.90;;;0.60;95.10;;;;;;10382061;28;20225;-93
2022/12/18 08:16:15;;;;;;;47.90;21.50;;;-0.10;99.90;;;;;;10374622;28;20178;-92
2022/12/18 08:21:22;;;;;;;23.57;12.90;;;1.40;99.90;;;;;;10366641;28;20175;-91
2022/12/18 08:26:27;;;;;;;32.63;14.40;;;4.00;99.90;;;;;;10337386;28;20248;-93
2022/12/18 08:31:30;;;;;;;45.80;21.40;;;5.90;99.90;;;;;;10372550;28;20182;-93
2022/12/18 08:36:33;;;;;;;40.13;20.03;;;4.20;93.90;;;;;;10364625;28;20195;-92
2022/12/18 08:41:35;;;;;;;67.33;30.47;;;3.90;94.40;;;;;;10327410;28;20184;-90
2022/12/18 08:46:40;;;;;;;64.60;28.80;;;1.60;85.40;;;;;;10345782;28;20230;-91
2022/12/18 08:51:42;;;;;;;32.03;15.40;;;-0.30;98.30;;;;;;10327563;28;20591;-91
2022/12/18 08:56:45;;;;;;;66.90;29.00;;;0.10;99.90;;;;;;10343596;28;20243;-92
2022/12/18 09:01:48;;;;;;;53.87;26.00;;;0.20;99.90;;;;;;10342410;28;20241;-91
2022/12/18 09:06:50;;;;;;;58.43;27.70;;;0.50;99.10;;;;;;10325832;28;20238;-92
2022/12/18 09:11:55;;;;;;;49.63;24.00;;;-0.20;99.60;;;;;;10326599;28;20260;-91
2022/12/18 09:16:58;;;;;;;48.87;22.93;;;-0.50;99.90;;;;;;10361458;28;20205;-94
2022/12/18 09:22:03;;;;;;;44.40;22.70;;;-0.50;99.90;;;;;;10349657;28;20210;-95
2022/12/18 09:27:06;;;;;;;42.63;20.60;;;-0.60;99.90;;;;;;10356353;28;20221;-93
2022/12/18 09:32:08;;;;;;;42.73;20.63;;;-0.50;99.90;;;;;;10335550;28;20262;-94
2022/12/18 09:37:11;;;;;;;51.13;23.23;;;-0.90;99.90;;;;;;10346213;28;20273;-95
2022/12/18 09:42:22;;;;;;;46.27;21.77;;;-0.40;99.90;;;;;;10344176;28;20636;-93
2022/12/18 09:47:30;;;;;;;41.73;20.00;;;-0.80;99.90;;;;;;10322084;28;20756;-93
2022/12/18 09:52:43;;;;;;;48.43;23.23;;;0.40;99.90;;;;;;10342508;28;20202;-94
2022/12/18 09:57:52;;;;;;;45.57;22.40;;;0.40;99.90;;;;;;10325123;28;20574;-93
2022/12/18 10:03:10;;;;;;;45.37;19.50;;;0.50;99.90;;;;;;10339883;28;20265;-91
2022/12/18 10:08:18;;;;;;;59.97;27.10;;;2.40;99.90;;;;;;10333593;28;20928;-93
2022/12/18 10:13:35;;;;;;;37.60;17.70;;;1.70;97.50;;;;;;10337371;28;20236;-93
2022/12/18 10:18:55;;;;;;;35.87;17.87;;;1.80;99.90;;;;;;10318604;28;20775;-92
2022/12/18 10:24:21;;;;;;;49.83;23.53;;;3.30;99.90;;;;;;10341137;28;20857;-93
2022/12/18 10:29:25;;;;;;;29.83;15.83;;;2.80;86.70;;;;;;10332786;28;20250;-93
2022/12/18 10:34:28;;;;;;;43.57;20.30;;;2.70;99.90;;;;;;10336043;28;20241;-93
2022/12/18 10:39:30;;;;;;;42.90;21.43;;;2.20;95.40;;;;;;10316575;28;20202;-92
2022/12/18 10:44:33;;;;;;;44.67;20.07;;;0.90;98.10;;;;;;9990228;28;10000513;-91
2022/12/18 10:49:36;;;;;;;48.30;24.30;;;0.30;99.90;;;;;;10338599;28;20268;-94
2022/12/18 10:54:39;;;;;;;52.57;23.40;;;0.00;99.90;;;;;;10336297;28;20268;-93
2022/12/18 10:59:51;;;;;;;47.60;24.77;;;0.20;99.90;;;;;;10328370;28;20249;-92
2022/12/18 11:04:54;;;;;;;35.70;19.67;;;0.10;99.90;;;;;;10328224;28;20238;-93
2022/12/18 11:10:00;;;;;;;40.70;21.97;;;1.00;99.90;;;;;;10317418;28;20199;-93
2022/12/18 11:15:03;;;;;;;58.00;29.47;;;1.20;99.90;;;;;;10326950;28;20581;-93
2022/12/18 11:20:31;;;;;;;50.77;27.37;;;0.40;99.90;;;;;;10327551;28;20198;-93
2022/12/18 11:25:34;;;;;;;49.33;25.97;;;0.20;99.90;;;;;;10297732;28;20237;-93
2022/12/18 11:30:37;;;;;;;46.30;23.80;;;-0.20;99.90;;;;;;10316150;28;20262;-92
2022/12/18 11:35:43;;;;;;;39.17;22.17;;;0.20;99.90;;;;;;10307970;28;20198;-91
2022/12/18 11:40:51;;;;;;;41.53;23.23;;;0.50;99.90;;;;;;10295002;28;20241;-93
2022/12/18 11:46:06;;;;;;;44.07;24.27;;;0.20;99.90;;;;;;10343597;28;20229;-95
2022/12/18 11:51:18;;;;;;;38.73;22.17;;;0.10;99.90;;;;;;10362679;28;20193;-93
2022/12/18 11:56:36;;;;;;;36.40;21.43;;;0.10;99.90;;;;;;10335114;28;20215;-95
2022/12/18 12:02:24;;;;;;;47.63;31.50;;;0.40;99.90;;;;;;10359287;28;20728;-96
2022/12/18 12:07:52;;;;;;;20.97;8.47;;;-0.50;99.90;;;;;;10331746;28;20221;-96
2022/12/18 12:13:16;;;;;;;40.40;22.20;;;1.20;99.90;;;;;;10355723;28;20224;-96
2022/12/18 12:18:18;;;;;;;45.03;24.83;;;2.30;97.20;;;;;;10344079;28;20204;-96
2022/12/18 12:24:05;;;;;;;40.13;22.80;;;1.50;96.20;;;;;;10325471;28;20767;-96
2022/12/18 12:29:35;;;;;;;45.93;26.47;;;1.20;99.90;;;;;;10251023;29;20243;-95
2022/12/18 12:34:44;;;;;;;44.43;24.80;;;1.20;99.90;;;;;;10252598;29;20215;-96
2022/12/18 12:39:47;;;;;;;49.27;27.47;;;0.40;99.90;;;;;;10248819;29;20236;-96
2022/12/18 12:44:57;;;;;;;53.20;29.60;;;0.10;99.90;;;;;;10247379;29;20243;-95
2022/12/18 12:50:04;;;;;;;51.60;29.03;;;0.10;99.90;;;;;;10250879;29;20208;-96
2022/12/18 12:55:19;;;;;;;47.20;27.20;;;-0.30;99.90;;;;;;10257949;29;20209;-96
2022/12/18 13:00:26;;;;;;;50.67;27.00;;;-0.30;99.90;;;;;;10290046;28;20241;-96
2022/12/18 13:05:41;;;;;;;65.37;32.67;;;-0.50;99.90;;;;;;10383257;28;20295;-96
2022/12/18 13:10:44;;;;;;;42.93;24.40;;;-0.60;99.90;;;;;;10358946;28;20200;-94
2022/12/18 13:15:48;;;;;;;53.40;31.07;;;0.60;99.90;;;;;;10333134;28;20546;-90
2022/12/18 13:21:05;;;;;;;52.10;30.43;;;1.20;97.90;;;;;;10317398;28;20237;-94
2022/12/18 13:26:11;;;;;;;76.73;29.50;;;1.30;98.10;;;;;;10334415;28;20244;-85
2022/12/18 13:31:33;;;;;;;48.93;27.40;;;1.50;95.60;;;;;;10334335;28;20213;-87
2022/12/18 13:36:36;;;;;;;49.70;25.57;;;-1.40;99.90;;;;;;10334928;28;20208;-87
2022/12/18 13:41:38;;;;;;;45.87;22.47;;;-1.90;99.90;;;;;;10336175;28;20201;-87
2022/12/18 13:46:46;;;;;;;43.20;22.97;;;-2.00;99.90;;;;;;10336692;28;20275;-87
2022/12/18 13:51:54;;;;;;;47.73;21.50;;;-1.90;99.90;;;;;;10322979;28;20196;-87
2022/12/18 13:56:57;;;;;;;39.37;19.80;;;-1.70;99.90;;;;;;10318842;28;20209;-87
2022/12/18 14:02:17;;;;;;;43.53;22.77;;;-1.20;99.90;;;;;;10308678;28;20264;-87
2022/12/18 14:07:25;;;;;;;39.43;23.40;;;-1.30;99.90;;;;;;10329091;28;20295;-87
2022/12/18 14:18:09;;;;;;;41.57;23.77;;;-1.50;99.90;;;;;;10301008;28;20287;-86
2022/12/18 14:23:34;;;;;;;57.90;32.50;;;-1.70;99.90;;;;;;10296296;28;20291;-87
2022/12/18 14:28:43;;;;;;;60.33;34.47;;;-2.00;99.90;;;;;;10314464;28;20256;-87
2022/12/18 14:33:46;;;;;;;43.50;24.90;;;-2.10;99.90;;;;;;10302201;28;20269;-87
2022/12/18 14:38:50;;;;;;;53.30;34.90;;;-1.40;99.90;;;;;;10289816;28;20280;-87
2022/12/18 14:43:54;;;;;;;56.40;25.53;;;-1.40;99.90;;;;;;10298388;28;20693;-87
2022/12/18 14:48:57;;;;;;;56.53;25.87;;;-1.50;99.90;;;;;;10316243;28;20289;-87
2022/12/18 14:54:02;;;;;;;40.77;20.93;;;-0.90;99.90;;;;;;10307950;28;20226;-87
2022/12/18 14:59:13;;;;;;;45.27;25.67;;;-0.30;99.90;;;;;;10309800;28;20238;-87
2022/12/18 15:04:35;;;;;;;46.83;25.50;;;-0.40;99.90;;;;;;10322505;28;20269;-86
2022/12/18 15:09:39;;;;;;;44.63;25.00;;;-0.40;99.90;;;;;;10311982;28;20261;-87
2022/12/18 15:14:41;;;;;;;76.63;40.93;;;0.20;99.90;;;;;;10329729;28;20415;-87
2022/12/18 15:19:46;;;;;;;54.37;26.47;;;-0.20;99.90;;;;;;10327832;28;20232;-86
2022/12/18 15:24:49;;;;;;;49.97;26.83;;;-0.50;99.90;;;;;;9979956;28;9999793;-86
2022/12/18 15:30:09;;;;;;;44.97;21.47;;;0.40;99.90;;;;;;10328598;28;20684;-86
2022/12/18 15:35:23;;;;;;;34.53;19.27;;;1.50;99.90;;;;;;10293142;28;20229;-87
2022/12/18 15:40:26;;;;;;;45.90;27.03;;;2.30;97.30;;;;;;10307181;28;20237;-85
2022/12/18 15:45:28;;;;;;;45.37;25.83;;;1.20;96.50;;;;;;10324339;28;20240;-87
2022/12/18 15:50:31;;;;;;;50.23;27.97;;;0.50;99.70;;;;;;10308208;28;20771;-87
2022/12/18 16:01:02;;;;;;;51.30;31.30;;;0.10;99.90;;;;;;10324156;28;20239;-87
2022/12/18 16:06:05;;;;;;;50.40;27.10;;;0.00;99.90;;;;;;10324548;28;20262;-87
2022/12/18 16:11:37;;;;;;;49.50;26.10;;;0.20;99.90;;;;;;10322154;28;20304;-87
2022/12/18 16:16:40;;;;;;;42.07;22.50;;;0.50;99.90;;;;;;10281521;28;20241;-87
2022/12/18 16:21:43;;;;;;;42.87;22.93;;;0.70;99.90;;;;;;10292452;28;20228;-87
2022/12/18 16:26:45;;;;;;;75.20;34.00;;;1.90;99.90;;;;;;10315056;28;20248;-87
2022/12/18 16:31:48;;;;;;;53.27;27.37;;;1.80;97.60;;;;;;10324956;28;20234;-87
2022/12/18 16:36:51;;;;;;;55.97;20.07;;;3.40;99.90;;;;;;10307497;28;20237;-87
2022/12/18 16:41:53;;;;;;;86.17;51.03;;;4.80;99.00;;;;;;10285564;28;20233;-86
2022/12/18 16:47:01;;;;;;;29.87;14.40;;;;;;;;;;10322150;28;20322;-85
2022/12/18 16:52:05;;;;;;;92.57;49.20;;;-2.10;99.90;;;;;;10306205;28;20225;-87
2022/12/18 16:57:10;;;;;;;128.53;71.03;;;;;;;;;;10324249;28;20287;-87
2022/12/18 17:02:14;;;;;;;100.93;56.27;;;;;;;;;;9975051;28;10000392;-86
2022/12/18 17:07:19;;;;;;;133.70;66.77;;;-4.30;99.90;;;;;;10328283;28;20259;-86
2022/12/18 17:12:22;;;;;;;104.07;55.67;;;-4.80;99.90;;;;;;10330372;28;20248;-86
2022/12/18 17:17:24;;;;;;;95.47;46.73;;;-5.00;99.90;;;;;;10312973;28;20260;-86
2022/12/18 17:22:27;;;;;;;110.03;51.77;;;-5.20;99.90;;;;;;10296294;28;20244;-87
2022/12/18 17:27:29;;;;;;;104.70;51.30;;;-5.30;99.90;;;;;;10312208;28;20320;-86
2022/12/18 17:32:32;;;;;;;115.73;55.90;;;-5.40;99.90;;;;;;10312300;28;20228;-86
2022/12/18 17:37:34;;;;;;;123.57;60.47;;;-5.40;99.90;;;;;;10328123;28;20221;-87
2022/12/18 17:42:37;;;;;;;122.73;57.27;;;-5.50;99.90;;;;;;10312302;28;20233;-86
2022/12/18 17:47:39;;;;;;;45.53;20.03;;;-5.40;99.90;;;;;;10311762;28;20253;-86
2022/12/18 17:52:42;;;;;;;83.83;37.30;;;-5.40;99.90;;;;;;10329537;28;20231;-86
2022/12/18 17:57:44;;;;;;;62.00;28.33;;;;;;;;;;10326799;28;20291;-87
2022/12/18 18:02:47;;;;;;;71.57;33.13;;;-3.40;99.90;;;;;;10321518;28;20252;-87
2022/12/18 18:07:50;;;;;;;80.83;33.47;;;-2.70;99.90;;;;;;10311849;28;20260;-87
2022/12/18 18:18:15;;;;;;;55.57;26.63;;;-1.40;99.90;;;;;;10324818;28;20674;-87
2022/12/18 18:23:18;;;;;;;73.00;37.50;;;0.00;99.90;;;;;;10328118;28;20252;-87
2022/12/18 18:28:24;;;;;;;57.83;28.20;;;1.20;99.90;;;;;;10328113;28;20269;-87
2022/12/18 18:33:26;;;;;;;40.00;19.73;;;1.30;99.90;;;;;;10325815;28;20233;-87
2022/12/18 18:38:29;;;;;;;56.60;26.83;;;1.40;99.90;;;;;;10325156;28;20279;-87
2022/12/18 18:43:32;;;;;;;65.20;35.50;;;2.10;99.90;;;;;;10309752;28;20279;-87
2022/12/18 18:48:36;;;;;;;48.43;24.97;;;0.80;99.90;;;;;;10292680;28;20260;-87
2022/12/18 18:53:42;;;;;;;93.27;49.87;;;0.60;99.90;;;;;;10329400;28;20271;-87
2022/12/18 18:58:45;;;;;;;99.47;47.00;;;0.50;98.30;;;;;;10329786;28;20228;-87
2022/12/18 19:03:48;;;;;;;109.17;56.43;;;-2.90;99.90;;;;;;10286446;28;20303;-84
2022/12/18 19:08:52;;;;;;;112.77;56.87;;;-3.90;99.90;;;;;;10286703;28;20226;-86
2022/12/18 19:13:56;;;;;;;116.33;59.23;;;-4.50;99.90;;;;;;10308241;28;20251;-85
2022/12/18 19:18:59;;;;;;;126.30;69.32;;;-5.00;99.90;;;;;;10303547;28;20525;-85
2022/12/18 19:24:05;;;;;;;134.02;61.90;;;-5.20;99.90;;;;;;10298825;28;20888;-85
2022/12/18 19:29:09;;;;;;;125.90;61.63;;;-5.40;99.90;;;;;;10313749;28;20307;-85
2022/12/18 19:34:12;;;;;;;113.40;51.63;;;;;;;;;;10322019;28;20209;-85
2022/12/18 19:39:17;;;;;;;87.33;40.67;;;-5.60;99.90;;;;;;10311448;28;20278;-84
2022/12/18 19:44:20;;;;;;;44.37;16.73;;;-5.60;99.90;;;;;;10280575;28;20277;-83
2022/12/18 19:49:23;;;;;;;86.40;40.17;;;-5.10;99.90;;;;;;10301940;28;20232;-83
2022/12/18 19:54:25;;;;;;;62.53;25.97;;;-4.40;99.90;;;;;;10321111;28;20313;-84
2022/12/18 19:59:27;;;;;;;78.68;42.78;;;-3.70;99.90;;;;;;10299769;28;20493;-86
2022/12/18 20:04:30;;;;;;;83.07;41.70;;;-3.10;99.90;;;;;;10288862;28;20249;-85
2022/12/18 20:09:35;;;;;;;97.53;49.83;;;-4.20;99.90;;;;;;10310769;28;20256;-83
2022/12/18 20:14:38;;;;;;;98.17;48.50;;;-5.40;99.90;;;;;;10290084;28;20281;-84
2022/12/18 20:19:41;;;;;;;97.90;47.17;;;-5.70;99.90;;;;;;10305331;28;20295;-83
2022/12/18 20:24:45;;;;;;;114.07;58.70;;;-5.80;99.90;;;;;;10303526;28;20498;-83
2022/12/18 20:29:50;;;;;;;109.00;51.63;;;-5.90;99.90;;;;;;10316335;28;20260;-82
2022/12/18 20:34:53;;;;;;;110.70;50.33;;;-5.90;99.90;;;;;;10307829;28;20268;-83
2022/12/18 20:39:56;;;;;;;114.87;51.50;;;-6.00;99.90;;;;;;10314915;28;20232;-83
2022/12/18 20:44:59;;;;;;;112.65;56.00;;;-6.10;99.90;;;;;;10308165;28;20471;-83
2022/12/18 20:50:02;;;;;;;118.80;58.77;;;-6.10;99.90;;;;;;10309773;28;20280;-81
2022/12/18 20:55:06;;;;;;;122.80;59.00;;;-6.10;99.90;;;;;;10310448;28;20652;-85
2022/12/18 21:00:10;;;;;;;132.83;59.07;;;-6.10;99.90;;;;;;10315384;28;20225;-85
2022/12/18 21:05:13;;;;;;;132.30;64.13;;;-6.20;99.90;;;;;;10298799;28;20256;-80
2022/12/18 21:10:16;;;;;;;116.20;57.30;;;-6.10;99.90;;;;;;10314009;28;20292;-80
2022/12/18 21:15:20;;;;;;;87.87;33.80;;;-6.10;99.90;;;;;;10318571;28;20265;-82
2022/12/18 21:20:30;;;;;;;110.63;53.63;;;-5.90;99.90;;;;;;10307924;28;20921;-83
2022/12/18 21:25:32;;;;;;;135.47;61.50;;;-5.20;99.90;;;;;;10317930;28;20225;-84
2022/12/18 21:30:35;;;;;;;55.23;24.40;;;-5.80;99.90;;;;;;10317216;28;20255;-84
2022/12/18 21:35:37;;;;;;;75.97;28.23;;;-5.40;99.90;;;;;;10304678;28;20287;-86
2022/12/18 21:40:40;;;;;;;94.97;36.23;;;-3.30;99.90;;;;;;10317801;28;20840;-86
2022/12/18 21:45:42;;;;;;;59.13;27.40;;;-1.00;99.90;;;;;;10310845;28;21174;-86
2022/12/18 21:50:45;;;;;;;62.50;27.07;;;-0.50;99.90;;;;;;10318917;28;20279;-84
2022/12/18 21:55:57;;;;;;;55.70;25.97;;;-0.30;99.90;;;;;;10308488;28;20216;-85
2022/12/18 22:01:00;;;;;;;71.37;30.77;;;0.20;99.90;;;;;;10310636;28;20233;-84
2022/12/18 22:06:04;;;;;;;53.30;24.87;;;0.60;99.90;;;;;;10318296;28;20281;-86
2022/12/18 22:11:12;;;;;;;58.37;27.37;;;1.10;99.90;;;;;;10298463;28;20256;-87
2022/12/18 22:16:14;;;;;;;55.13;26.87;;;1.60;99.90;;;;;;10322384;28;20748;-86
2022/12/18 22:21:29;;;;;;;47.83;23.30;;;1.30;99.90;;;;;;10329842;28;20267;-86
2022/12/18 22:26:34;;;;;;;58.20;26.43;;;1.90;99.90;;;;;;10303328;28;20229;-86
2022/12/18 22:31:41;;;;;;;60.53;30.57;;;2.10;99.90;;;;;;10320981;28;20233;-86
2022/12/18 22:36:47;;;;;;;74.57;37.70;;;2.10;99.90;;;;;;10308345;28;20233;-86
2022/12/18 22:41:50;;;;;;;57.40;25.90;;;0.70;99.90;;;;;;10305364;28;20237;-86
2022/12/18 22:46:54;;;;;;;69.33;31.67;;;1.30;99.90;;;;;;10306956;28;20233;-86
2022/12/18 22:52:08;;;;;;;46.83;21.93;;;2.30;99.90;;;;;;10290718;28;20686;-86
2022/12/18 22:57:11;;;;;;;47.93;21.70;;;2.50;99.90;;;;;;10315277;28;20370;-86
2022/12/18 23:02:14;;;;;;;48.27;23.77;;;2.50;99.90;;;;;;10326440;28;20252;-85
2022/12/18 23:07:16;;;;;;;64.33;31.20;;;2.90;99.90;;;;;;10311579;28;20750;-86
2022/12/18 23:12:19;;;;;;;41.80;21.03;;;3.40;99.90;;;;;;10328296;28;20232;-86
2022/12/18 23:17:21;;;;;;;66.93;31.53;;;3.30;99.90;;;;;;10328532;28;20330;-86
2022/12/18 23:22:24;;;;;;;45.07;21.57;;;2.80;99.90;;;;;;10326272;28;20291;-86
2022/12/18 23:27:26;;;;;;;60.20;27.40;;;3.40;99.90;;;;;;10328594;28;20708;-86
2022/12/18 23:32:29;;;;;;;48.13;22.87;;;3.80;99.90;;;;;;10328462;28;20294;-86
2022/12/18 23:37:34;;;;;;;71.10;33.27;;;3.70;99.90;;;;;;10328527;28;20300;-86
2022/12/18 23:42:58;;;;;;;68.40;35.20;;;2.90;99.90;;;;;;10328202;28;20233;-86
2022/12/18 23:48:00;;;;;;;44.50;22.50;;;1.50;97.70;;;;;;10327385;28;20245;-86
2022/12/18 23:53:03;;;;;;;72.33;37.50;;;2.00;99.90;;;;;;10326142;28;20205;-86
2022/12/18 23:58:17;;;;;;;66.40;32.57;;;1.80;94.30;;;;;;10326905;28;20287;-86
